Impacts METAR Board INFO
IDs:

KDTW - Detroit Metro/Wayne, MI, US

Updated at: 0034 UTC 14 Dec 2017
Potential Impact None Slight Moderate High
Time13/12Z 13/13Z 13/14Z 13/15Z 13/16Z 13/17Z 13/18Z 13/19Z 13/20Z 13/21Z 13/22Z 13/23Z 14/00Z
VIS10 10 1.5 1.5 1 0.75 1 1.25 9 0.5 0.5 0.5 0.5
CIG42 35 25 25 20 20 15 25 14 14 14 8 6
CoverOVCOVCOVCOVCOVCOVCOVCOVCOVCOVCOVXOVXOVX
FltCatVFRVFRIFRIFRIFRLIFRIFRIFRMVFRLIFRLIFRLIFRLIFR
WX-----SN-SN-SN BR-SN-SN-SN--SN-SN BR-SN BRSN FZFG
WDir220200190180190180170160130140130130120
WSpd6 8 7 7 9 10 9 7 10 9 6 9 6
WGst-- -- -- -- -- -- -- -- -- 17 -- -- --
Raw hourly METARs
KDTW 131153Z 22006KT 10SM OVC042 M08/M13 A2984 RMK AO2 SLP114 T10781128 11078 21100 58008
KDTW 131253Z 20008KT 10SM BKN035 OVC055 M08/M12 A2983 RMK AO2 SLP110 T10781117
KDTW 131356Z 19007KT 1 1/2SM -SN BKN025 OVC035 M07/M11 A2980 RMK AO2 SFC VIS 2 P0000 T10721111
KDTW 131453Z 18007KT 1 1/2SM -SN BKN025 OVC035 M07/M10 A2978 RMK AO2 SFC VIS 2 SLP094 P0001 60001 T10671100 58020
KDTW 131553Z 19009KT 1SM R03R/3500V5500FT -SN BR OVC020 M07/M09 A2977 RMK AO2 SLP089 P0001 T10671089
KDTW 131704Z 18010KT 3/4SM R03R/4000V6000FT -SN OVC020 M06/M09 A2970 RMK AO2 SFC VIS 1 1/4 P0000 T10611089
KDTW 131757Z 17009KT 1SM R03R/4500VP6000FT -SN BKN015 OVC050 M06/M09 A2964 RMK AO2 SFC VIS 1 1/4 PRESFR P0000 T10611089
KDTW 131853Z 16007KT 1 1/4SM -SN SCT015 BKN025 OVC045 M06/M09 A2959 RMK AO2 TWR VIS 1 1/2 SLP028 P0001 T10561089
KDTW 132000Z 13010KT 9SM BKN014 BKN040 OVC060 M05/M08 A2952 RMK AO2 T10501083
KDTW 132053Z 14009G17KT 1/2SM R03R/4000VP6000FT SN BKN014 OVC020 M04/M08 A2947 RMK AO2 TWR VIS 4 SNB34 SLP989 P0000 60002 T10441078 56059
KDTW 132205Z 13006KT 1/2SM R03R/5000VP6000FT -SN BR VV014 M04/M07 A2948 RMK AO2 SFC VIS 3/4 P0001 T10441067
KDTW 132253Z 13009KT 1/2SM R03R/5500VP6000FT -SN BR VV008 M04/M07 A2947 RMK AO2 SFC VIS 3/4 SLP988 P0007 T10441067
KDTW 132353Z 12006KT 1/2SM R03R/4500V5500FT SN FZFG VV006 M04/M06 A2944 RMK AO2 SLP976 P0007 60021 T10391061 11039 21061 56016